sensor_id;sensor_type;location;lat;lon;timestamp;pressure;altitude;pressure_sealevel;temperature;humidity
50065;BME280;35951;47.848;-122.338;2022-08-14T00:02:18;101920.32;;;22.47;100.00
50065;BME280;35951;47.848;-122.338;2022-08-14T00:04:46;101918.45;;;22.50;100.00
50065;BME280;35951;47.848;-122.338;2022-08-14T00:07:14;101914.87;;;22.54;100.00
50065;BME280;35951;47.848;-122.338;2022-08-14T00:09:43;101912.58;;;22.58;100.00
50065;BME280;35951;47.848;-122.338;2022-08-14T00:12:12;101909.45;;;22.60;100.00
50065;BME280;35951;47.848;-122.338;2022-08-14T00:14:40;101913.34;;;22.65;100.00
50065;BME280;35951;47.848;-122.338;2022-08-14T00:17:08;101911.53;;;22.67;100.00
50065;BME280;35951;47.848;-122.338;2022-08-14T00:19:35;101909.74;;;22.68;100.00
50065;BME280;35951;47.848;-122.338;2022-08-14T00:22:03;101911.42;;;22.72;100.00
50065;BME280;35951;47.848;-122.338;2022-08-14T00:24:31;101909.61;;;22.74;100.00
50065;BME280;35951;47.848;-122.338;2022-08-14T00:26:58;101910.88;;;22.77;100.00
50065;BME280;35951;47.848;-122.338;2022-08-14T00:29:26;101912.18;;;22.78;100.00
50065;BME280;35951;47.848;-122.338;2022-08-14T00:31:54;101910.37;;;22.80;100.00
50065;BME280;35951;47.848;-122.338;2022-08-14T00:34:22;101905.53;;;22.80;100.00
50065;BME280;35951;47.848;-122.338;2022-08-14T00:36:50;101902.02;;;22.79;100.00
50065;BME280;35951;47.848;-122.338;2022-08-14T00:39:18;101903.28;;;22.81;100.00
50065;BME280;35951;47.848;-122.338;2022-08-14T00:41:47;101897.98;;;22.81;100.00
50065;BME280;35951;47.848;-122.338;2022-08-14T00:44:16;101890.94;;;22.81;100.00
50065;BME280;35951;47.848;-122.338;2022-08-14T00:46:43;101891.34;;;22.83;100.00
50065;BME280;35951;47.848;-122.338;2022-08-14T00:49:12;101888.20;;;22.85;100.00
50065;BME280;35951;47.848;-122.338;2022-08-14T00:51:44;101884.66;;;22.86;100.00
50065;BME280;35951;47.848;-122.338;2022-08-14T00:54:11;101887.31;;;22.86;100.00
50065;BME280;35951;47.848;-122.338;2022-08-14T00:56:39;101892.61;;;22.86;100.00
50065;BME280;35951;47.848;-122.338;2022-08-14T00:59:07;101902.83;;;22.83;100.00
50065;BME280;35951;47.848;-122.338;2022-08-14T01:01:37;101899.88;;;22.76;100.00
50065;BME280;35951;47.848;-122.338;2022-08-14T01:04:05;101903.94;;;22.71;100.00
50065;BME280;35951;47.848;-122.338;2022-08-14T01:06:32;101906.31;;;22.62;100.00
50065;BME280;35951;47.848;-122.338;2022-08-14T01:09:02;101901.35;;;22.46;100.00
50065;BME280;35951;47.848;-122.338;2022-08-14T01:11:31;101900.30;;;22.30;100.00
50065;BME280;35951;47.848;-122.338;2022-08-14T01:13:59;101899.11;;;22.21;100.00
50065;BME280;35951;47.848;-122.338;2022-08-14T01:16:28;101903.25;;;22.12;100.00
50065;BME280;35951;47.848;-122.338;2022-08-14T01:18:58;101893.33;;;21.99;100.00
50065;BME280;35951;47.848;-122.338;2022-08-14T01:21:44;101889.94;;;21.92;100.00
50065;BME280;35951;47.848;-122.338;2022-08-14T01:24:13;101893.95;;;21.89;100.00
50065;BME280;35951;47.848;-122.338;2022-08-14T01:26:41;101892.24;;;21.87;100.00
50065;BME280;35951;47.848;-122.338;2022-08-14T01:29:11;101886.55;;;21.82;100.00
50065;BME280;35951;47.848;-122.338;2022-08-14T01:31:39;101880.84;;;21.83;100.00
50065;BME280;35951;47.848;-122.338;2022-08-14T01:34:12;101880.78;;;21.84;100.00
50065;BME280;35951;47.848;-122.338;2022-08-14T01:36:40;101885.66;;;21.85;100.00
50065;BME280;35951;47.848;-122.338;2022-08-14T01:39:10;101881.23;;;21.85;100.00
50065;BME280;35951;47.848;-122.338;2022-08-14T01:41:40;101883.89;;;21.84;100.00
50065;BME280;35951;47.848;-122.338;2022-08-14T01:44:13;101879.06;;;21.83;100.00
50065;BME280;35951;47.848;-122.338;2022-08-14T01:46:42;101877.39;;;21.78;100.00
50065;BME280;35951;47.848;-122.338;2022-08-14T01:49:13;101877.55;;;21.69;100.00
50065;BME280;35951;47.848;-122.338;2022-08-14T01:51:41;101875.83;;;21.64;100.00
50065;BME280;35951;47.848;-122.338;2022-08-14T01:54:14;101879.02;;;21.59;100.00
50065;BME280;35951;47.848;-122.338;2022-08-14T01:56:45;101877.28;;;21.57;100.00
50065;BME280;35951;47.848;-122.338;2022-08-14T01:59:32;101873.34;;;21.54;100.00
50065;BME280;35951;47.848;-122.338;2022-08-14T02:02:03;101873.40;;;21.52;100.00
50065;BME280;35951;47.848;-122.338;2022-08-14T02:04:34;101876.54;;;21.49;100.00
50065;BME280;35951;47.848;-122.338;2022-08-14T02:07:03;101869.09;;;21.43;100.00
50065;BME280;35951;47.848;-122.338;2022-08-14T02:09:32;101873.60;;;21.35;100.00
50065;BME280;35951;47.848;-122.338;2022-08-14T02:12:04;101875.05;;;21.27;100.00
50065;BME280;35951;47.848;-122.338;2022-08-14T02:14:33;101871.61;;;21.21;100.00
50065;BME280;35951;47.848;-122.338;2022-08-14T02:17:03;101872.53;;;21.18;100.00
50065;BME280;35951;47.848;-122.338;2022-08-14T02:19:33;101872.14;;;21.16;100.00
50065;BME280;35951;47.848;-122.338;2022-08-14T02:22:02;101866.91;;;21.11;100.00
50065;BME280;35951;47.848;-122.338;2022-08-14T02:24:30;101872.70;;;21.06;100.00
50065;BME280;35951;47.848;-122.338;2022-08-14T02:26:59;101868.81;;;21.01;100.00
50065;BME280;35951;47.848;-122.338;2022-08-14T02:29:29;101873.73;;;20.96;100.00
50065;BME280;35951;47.848;-122.338;2022-08-14T02:31:59;101870.67;;;20.93;100.00
50065;BME280;35951;47.848;-122.338;2022-08-14T02:34:30;101866.34;;;20.87;100.00
50065;BME280;35951;47.848;-122.338;2022-08-14T02:37:01;101876.55;;;20.80;100.00
50065;BME280;35951;47.848;-122.338;2022-08-14T02:39:31;101873.58;;;20.71;100.00
50065;BME280;35951;47.848;-122.338;2022-08-14T02:42:01;101880.72;;;20.65;100.00
50065;BME280;35951;47.848;-122.338;2022-08-14T02:44:29;101879.01;;;20.58;100.00
50065;BME280;35951;47.848;-122.338;2022-08-14T02:46:57;101885.63;;;20.55;100.00
50065;BME280;35951;47.848;-122.338;2022-08-14T02:49:24;101887.44;;;20.49;100.00
50065;BME280;35951;47.848;-122.338;2022-08-14T02:51:55;101888.83;;;20.45;100.00
50065;BME280;35951;47.848;-122.338;2022-08-14T02:54:24;101887.16;;;20.36;100.00
50065;BME280;35951;47.848;-122.338;2022-08-14T02:56:53;101889.84;;;20.30;100.00
50065;BME280;35951;47.848;-122.338;2022-08-14T02:59:25;101890.77;;;20.26;100.00
50065;BME280;35951;47.848;-122.338;2022-08-14T03:01:55;101887.81;;;20.16;100.00
50065;BME280;35951;47.848;-122.338;2022-08-14T03:04:23;101895.37;;;20.05;100.00
50065;BME280;35951;47.848;-122.338;2022-08-14T03:06:52;101889.25;;;20.00;100.00
50065;BME280;35951;47.848;-122.338;2022-08-14T03:09:20;101891.95;;;19.96;100.00
50065;BME280;35951;47.848;-122.338;2022-08-14T03:11:48;101901.20;;;19.89;100.00
50065;BME280;35951;47.848;-122.338;2022-08-14T03:14:15;101900.38;;;19.83;100.00
50065;BME280;35951;47.848;-122.338;2022-08-14T03:16:43;101902.61;;;19.79;100.00
50065;BME280;35951;47.848;-122.338;2022-08-14T03:19:12;101900.90;;;19.73;100.00
50065;BME280;35951;47.848;-122.338;2022-08-14T03:21:40;101901.77;;;19.72;100.00
50065;BME280;35951;47.848;-122.338;2022-08-14T03:24:09;101901.78;;;19.70;100.00
50065;BME280;35951;47.848;-122.338;2022-08-14T03:26:40;101884.72;;;19.58;100.00
50065;BME280;35951;47.848;-122.338;2022-08-14T03:29:10;101903.55;;;19.68;100.00
50065;BME280;35951;47.848;-122.338;2022-08-14T03:31:40;101899.16;;;19.67;100.00
50065;BME280;35951;47.848;-122.338;2022-08-14T03:34:08;101907.06;;;19.66;100.00
50065;BME280;35951;47.848;-122.338;2022-08-14T03:36:38;101905.34;;;19.63;100.00
50065;BME280;35951;47.848;-122.338;2022-08-14T03:39:08;101904.03;;;19.60;100.00
50065;BME280;35951;47.848;-122.338;2022-08-14T03:41:37;101905.41;;;19.55;100.00
50065;BME280;35951;47.848;-122.338;2022-08-14T03:44:06;101912.45;;;19.52;100.00
50065;BME280;35951;47.848;-122.338;2022-08-14T03:46:37;101916.42;;;19.47;100.00
50065;BME280;35951;47.848;-122.338;2022-08-14T03:49:06;101919.52;;;19.42;100.00
50065;BME280;35951;47.848;-122.338;2022-08-14T03:51:36;101920.89;;;19.36;100.00
50065;BME280;35951;47.848;-122.338;2022-08-14T03:54:05;101920.03;;;19.32;100.00
50065;BME280;35951;47.848;-122.338;2022-08-14T03:56:34;101919.59;;;19.30;100.00
50065;BME280;35951;47.848;-122.338;2022-08-14T03:59:06;101921.36;;;19.26;100.00
50065;BME280;35951;47.848;-122.338;2022-08-14T04:01:36;101920.08;;;19.23;100.00
50065;BME280;35951;47.848;-122.338;2022-08-14T04:04:05;101924.49;;;19.16;100.00
50065;BME280;35951;47.848;-122.338;2022-08-14T04:06:36;101925.85;;;19.10;100.00
50065;BME280;35951;47.848;-122.338;2022-08-14T04:09:06;101926.30;;;19.05;100.00
50065;BME280;35951;47.848;-122.338;2022-08-14T04:11:35;101928.53;;;19.01;100.00
50065;BME280;35951;47.848;-122.338;2022-08-14T04:14:05;101932.48;;;18.96;100.00
50065;BME280;35951;47.848;-122.338;2022-08-14T04:16:33;101928.11;;;18.92;100.00
50065;BME280;35951;47.848;-122.338;2022-08-14T04:19:01;101936.02;;;18.89;100.00
50065;BME280;35951;47.848;-122.338;2022-08-14T04:21:30;101933.38;;;18.86;100.00
50065;BME280;35951;47.848;-122.338;2022-08-14T04:23:59;101935.19;;;18.81;100.00
50065;BME280;35951;47.848;-122.338;2022-08-14T04:26:28;101933.38;;;18.78;100.00
50065;BME280;35951;47.848;-122.338;2022-08-14T04:28:57;101932.06;;;18.75;100.00
50065;BME280;35951;47.848;-122.338;2022-08-14T04:31:26;101931.20;;;18.72;100.00
50065;BME280;35951;47.848;-122.338;2022-08-14T04:33:54;101930.36;;;18.67;100.00
50065;BME280;35951;47.848;-122.338;2022-08-14T04:36:22;101927.73;;;18.64;100.00
50065;BME280;35951;47.848;-122.338;2022-08-14T04:38:49;101926.86;;;18.58;100.00
50065;BME280;35951;47.848;-122.338;2022-08-14T04:41:34;101924.22;;;18.55;100.00
50065;BME280;35951;47.848;-122.338;2022-08-14T04:44:20;101925.12;;;18.51;100.00
50065;BME280;35951;47.848;-122.338;2022-08-14T04:46:47;101927.77;;;18.47;100.00
50065;BME280;35951;47.848;-122.338;2022-08-14T04:49:33;101923.81;;;18.40;100.00
50065;BME280;35951;47.848;-122.338;2022-08-14T04:52:03;101924.70;;;18.35;100.00
50065;BME280;35951;47.848;-122.338;2022-08-14T04:54:31;101923.83;;;18.31;100.00
50065;BME280;35951;47.848;-122.338;2022-08-14T04:56:59;101916.38;;;18.26;100.00
50065;BME280;35951;47.848;-122.338;2022-08-14T04:59:27;101919.45;;;18.22;100.00
50065;BME280;35951;47.848;-122.338;2022-08-14T05:01:55;101921.66;;;18.18;100.00
50065;BME280;35951;47.848;-122.338;2022-08-14T05:04:24;101920.78;;;18.16;100.00
50065;BME280;35951;47.848;-122.338;2022-08-14T05:06:53;101922.09;;;18.13;100.00
50065;BME280;35951;47.848;-122.338;2022-08-14T05:09:23;101919.48;;;18.07;100.00
50065;BME280;35951;47.848;-122.338;2022-08-14T05:11:51;101921.22;;;18.00;100.00
50065;BME280;35951;47.848;-122.338;2022-08-14T05:14:19;101922.96;;;17.95;100.00
50065;BME280;35951;47.848;-122.338;2022-08-14T05:16:47;101917.71;;;17.88;100.00
50065;BME280;35951;47.848;-122.338;2022-08-14T05:19:16;101923.36;;;17.82;100.00
50065;BME280;35951;47.848;-122.338;2022-08-14T05:21:44;101921.17;;;17.79;100.00
50065;BME280;35951;47.848;-122.338;2022-08-14T05:24:12;101921.61;;;17.75;100.00
50065;BME280;35951;47.848;-122.338;2022-08-14T05:26:40;101920.30;;;17.69;100.00
50065;BME280;35951;47.848;-122.338;2022-08-14T05:29:10;101918.09;;;17.65;100.00
50065;BME280;35951;47.848;-122.338;2022-08-14T05:31:38;101921.15;;;17.60;100.00
50065;BME280;35951;47.848;-122.338;2022-08-14T05:34:07;101915.47;;;17.59;100.00
50065;BME280;35951;47.848;-122.338;2022-08-14T05:36:36;101918.10;;;17.59;100.00
50065;BME280;35951;47.848;-122.338;2022-08-14T05:39:04;101919.84;;;17.60;100.00
50065;BME280;35951;47.848;-122.338;2022-08-14T05:41:32;101926.41;;;17.62;100.00
50065;BME280;35951;47.848;-122.338;2022-08-14T05:44:00;101918.52;;;17.60;100.00
50065;BME280;35951;47.848;-122.338;2022-08-14T05:46:28;101914.16;;;17.58;100.00
50065;BME280;35951;47.848;-122.338;2022-08-14T05:48:57;101919.86;;;17.57;100.00
50065;BME280;35951;47.848;-122.338;2022-08-14T05:51:25;101922.48;;;17.57;100.00
50065;BME280;35951;47.848;-122.338;2022-08-14T05:53:53;101914.14;;;17.56;100.00
50065;BME280;35951;47.848;-122.338;2022-08-14T05:56:23;101924.22;;;17.54;100.00
50065;BME280;35951;47.848;-122.338;2022-08-14T05:58:51;101918.09;;;17.50;100.00
50065;BME280;35951;47.848;-122.338;2022-08-14T06:01:19;101913.67;;;17.46;100.00
50065;BME280;35951;47.848;-122.338;2022-08-14T06:03:47;101908.43;;;17.41;100.00
50065;BME280;35951;47.848;-122.338;2022-08-14T06:06:16;101906.23;;;17.38;100.00
50065;BME280;35951;47.848;-122.338;2022-08-14T06:08:44;101908.39;;;17.35;100.00
50065;BME280;35951;47.848;-122.338;2022-08-14T06:11:11;101908.82;;;17.32;100.00
50065;BME280;35951;47.848;-122.338;2022-08-14T06:13:40;101911.03;;;17.32;100.00
50065;BME280;35951;47.848;-122.338;2022-08-14T06:16:09;101911.03;;;17.31;100.00
50065;BME280;35951;47.848;-122.338;2022-08-14T06:18:37;101906.22;;;17.30;100.00
50065;BME280;35951;47.848;-122.338;2022-08-14T06:21:06;101907.52;;;17.27;100.00
50065;BME280;35951;47.848;-122.338;2022-08-14T06:23:34;101906.61;;;17.22;100.00
50065;BME280;35951;47.848;-122.338;2022-08-14T06:26:02;101908.76;;;17.12;100.00
50065;BME280;35951;47.848;-122.338;2022-08-14T06:28:30;101908.76;;;17.12;100.00
50065;BME280;35951;47.848;-122.338;2022-08-14T06:30:59;101903.06;;;17.07;100.00
50065;BME280;35951;47.848;-122.338;2022-08-14T06:33:27;101911.81;;;17.03;100.00
50065;BME280;35951;47.848;-122.338;2022-08-14T06:35:55;101905.66;;;16.98;100.00
50065;BME280;35951;47.848;-122.338;2022-08-14T06:38:23;101900.85;;;16.98;100.00
50065;BME280;35951;47.848;-122.338;2022-08-14T06:40:52;101901.70;;;16.95;100.00
50065;BME280;35951;47.848;-122.338;2022-08-14T06:43:19;101903.01;;;16.91;100.00
50065;BME280;35951;47.848;-122.338;2022-08-14T06:45:48;101911.31;;;16.88;100.00
50065;BME280;35951;47.848;-122.338;2022-08-14T06:48:21;101913.47;;;16.86;100.00
50065;BME280;35951;47.848;-122.338;2022-08-14T06:50:53;101913.05;;;16.85;100.00
50065;BME280;35951;47.848;-122.338;2022-08-14T06:53:21;101907.81;;;16.86;100.00
50065;BME280;35951;47.848;-122.338;2022-08-14T06:55:49;101905.63;;;16.89;100.00
50065;BME280;35951;47.848;-122.338;2022-08-14T06:58:17;101906.48;;;16.89;100.00
50065;BME280;35951;47.848;-122.338;2022-08-14T07:00:46;101906.08;;;16.90;100.00
50065;BME280;35951;47.848;-122.338;2022-08-14T07:03:17;101906.08;;;16.90;100.00
50065;BME280;35951;47.848;-122.338;2022-08-14T07:06:04;101900.81;;;16.88;100.00
50065;BME280;35951;47.848;-122.338;2022-08-14T07:08:32;101902.98;;;16.87;100.00
50065;BME280;35951;47.848;-122.338;2022-08-14T07:11:00;101900.81;;;16.88;100.00
50065;BME280;35951;47.848;-122.338;2022-08-14T07:13:30;101902.11;;;16.87;100.00
50065;BME280;35951;47.848;-122.338;2022-08-14T07:15:58;101888.53;;;16.86;100.00
50065;BME280;35951;47.848;-122.338;2022-08-14T07:18:27;101888.53;;;16.86;100.00
50065;BME280;35951;47.848;-122.338;2022-08-14T07:20:57;101903.88;;;16.86;100.00
50065;BME280;35951;47.848;-122.338;2022-08-14T07:23:26;101900.80;;;16.87;100.00
50065;BME280;35951;47.848;-122.338;2022-08-14T07:25:55;101899.48;;;16.85;100.00
50065;BME280;35951;47.848;-122.338;2022-08-14T07:28:28;101899.91;;;16.83;100.00
50065;BME280;35951;47.848;-122.338;2022-08-14T07:30:59;101899.42;;;16.82;100.00
50065;BME280;35951;47.848;-122.338;2022-08-14T07:33:33;101897.69;;;16.81;100.00
50065;BME280;35951;47.848;-122.338;2022-08-14T07:36:05;101900.30;;;16.80;100.00
50065;BME280;35951;47.848;-122.338;2022-08-14T07:38:35;101891.09;;;16.78;100.00
50065;BME280;35951;47.848;-122.338;2022-08-14T07:41:03;101895.48;;;16.78;100.00
50065;BME280;35951;47.848;-122.338;2022-08-14T07:43:31;101896.33;;;16.75;100.00
50065;BME280;35951;47.848;-122.338;2022-08-14T07:45:59;101898.08;;;16.75;100.00
50065;BME280;35951;47.848;-122.338;2022-08-14T07:48:28;101890.64;;;16.73;100.00
50065;BME280;35951;47.848;-122.338;2022-08-14T07:50:56;101889.30;;;16.69;100.00
50065;BME280;35951;47.848;-122.338;2022-08-14T07:53:24;101899.80;;;16.66;100.00
50065;BME280;35951;47.848;-122.338;2022-08-14T07:55:52;101892.78;;;16.61;100.00
50065;BME280;35951;47.848;-122.338;2022-08-14T07:58:21;101892.31;;;16.58;100.00
50065;BME280;35951;47.848;-122.338;2022-08-14T08:00:52;101893.61;;;16.54;100.00
50065;BME280;35951;47.848;-122.338;2022-08-14T08:03:22;101893.56;;;16.47;100.00
50065;BME280;35951;47.848;-122.338;2022-08-14T08:05:53;101891.34;;;16.44;100.00
50065;BME280;35951;47.848;-122.338;2022-08-14T08:08:21;101898.77;;;16.44;100.00
50065;BME280;35951;47.848;-122.338;2022-08-14T08:10:48;101893.55;;;16.43;100.00
50065;BME280;35951;47.848;-122.338;2022-08-14T08:13:19;101897.89;;;16.42;100.00
50065;BME280;35951;47.848;-122.338;2022-08-14T08:15:53;101895.27;;;16.42;100.00
50065;BME280;35951;47.848;-122.338;2022-08-14T08:18:20;101891.77;;;16.40;100.00
50065;BME280;35951;47.848;-122.338;2022-08-14T08:20:51;101894.40;;;16.42;100.00
50065;BME280;35951;47.848;-122.338;2022-08-14T08:23:21;101889.59;;;16.41;100.00
50065;BME280;35951;47.848;-122.338;2022-08-14T08:25:50;101888.72;;;16.44;100.00
50065;BME280;35951;47.848;-122.338;2022-08-14T08:28:24;101892.23;;;16.43;100.00
50065;BME280;35951;47.848;-122.338;2022-08-14T08:30:56;101883.91;;;16.42;100.00
50065;BME280;35951;47.848;-122.338;2022-08-14T08:33:27;101888.27;;;16.40;100.00
50065;BME280;35951;47.848;-122.338;2022-08-14T08:35:59;101886.95;;;16.38;100.00
50065;BME280;35951;47.848;-122.338;2022-08-14T08:38:29;101890.45;;;16.40;100.00
50065;BME280;35951;47.848;-122.338;2022-08-14T08:40:59;101887.81;;;16.39;100.00
50065;BME280;35951;47.848;-122.338;2022-08-14T08:43:30;101891.75;;;16.39;100.00
50065;BME280;35951;47.848;-122.338;2022-08-14T08:48:52;101890.89;;;16.40;100.00
50065;BME280;35951;47.848;-122.338;2022-08-14T08:51:30;101888.27;;;16.40;100.00
50065;BME280;35951;47.848;-122.338;2022-08-14T08:54:14;101893.08;;;16.40;100.00
50065;BME280;35951;47.848;-122.338;2022-08-14T08:59:30;101886.96;;;16.40;100.00
50065;BME280;35951;47.848;-122.338;2022-08-14T09:01:55;101883.88;;;16.39;100.00
50065;BME280;35951;47.848;-122.338;2022-08-14T09:04:29;101882.59;;;16.37;100.00
50065;BME280;35951;47.848;-122.338;2022-08-14T09:06:59;101887.37;;;16.36;100.00
50065;BME280;35951;47.848;-122.338;2022-08-14T09:09:29;101886.51;;;16.36;100.00
50065;BME280;35951;47.848;-122.338;2022-08-14T09:11:58;101889.55;;;16.34;100.00
50065;BME280;35951;47.848;-122.338;2022-08-14T09:14:30;101889.98;;;16.35;100.00
50065;BME280;35951;47.848;-122.338;2022-08-14T09:17:00;101883.42;;;16.35;100.00
50065;BME280;35951;47.848;-122.338;2022-08-14T09:19:28;101880.38;;;16.34;100.00
50065;BME280;35951;47.848;-122.338;2022-08-14T09:21:56;101881.69;;;16.34;100.00
50065;BME280;35951;47.848;-122.338;2022-08-14T09:24:25;101875.55;;;16.33;100.00
50065;BME280;35951;47.848;-122.338;2022-08-14T09:26:54;101879.06;;;16.34;100.00
50065;BME280;35951;47.848;-122.338;2022-08-14T09:29:23;101879.05;;;16.35;100.00
50065;BME280;35951;47.848;-122.338;2022-08-14T09:31:55;101873.83;;;16.34;100.00
50065;BME280;35951;47.848;-122.338;2022-08-14T09:37:51;101874.66;;;16.31;100.00
50065;BME280;35951;47.848;-122.338;2022-08-14T09:46:35;101868.91;;;16.22;100.00
50065;BME280;35951;47.848;-122.338;2022-08-14T09:49:04;101872.41;;;16.20;100.00
50065;BME280;35951;47.848;-122.338;2022-08-14T09:51:35;101869.77;;;16.18;100.00
50065;BME280;35951;47.848;-122.338;2022-08-14T09:54:09;101871.08;;;16.18;100.00
50065;BME280;35951;47.848;-122.338;2022-08-14T09:56:48;101868.44;;;16.17;100.00
50065;BME280;35951;47.848;-122.338;2022-08-14T09:59:17;101861.46;;;16.16;100.00
50065;BME280;35951;47.848;-122.338;2022-08-14T10:01:47;101857.95;;;16.14;100.00
50065;BME280;35951;47.848;-122.338;2022-08-14T10:04:24;101857.95;;;16.14;100.00
50065;BME280;35951;47.848;-122.338;2022-08-14T10:06:54;101863.17;;;16.10;100.00
50065;BME280;35951;47.848;-122.338;2022-08-14T10:09:21;101862.70;;;16.08;100.00
50065;BME280;35951;47.848;-122.338;2022-08-14T10:11:57;101860.09;;;16.06;100.00
50065;BME280;35951;47.848;-122.338;2022-08-14T10:14:27;101866.20;;;16.07;100.00
50065;BME280;35951;47.848;-122.338;2022-08-14T10:16:57;101866.20;;;16.07;100.00
50065;BME280;35951;47.848;-122.338;2022-08-14T10:19:27;101863.13;;;16.06;100.00
50065;BME280;35951;47.848;-122.338;2022-08-14T10:22:00;101858.34;;;16.07;100.00
50065;BME280;35951;47.848;-122.338;2022-08-14T10:24:42;101863.56;;;16.05;100.00
50065;BME280;35951;47.848;-122.338;2022-08-14T10:27:24;101865.30;;;16.03;100.00
50065;BME280;35951;47.848;-122.338;2022-08-14T10:29:51;101862.20;;;16.01;100.00
50065;BME280;35951;47.848;-122.338;2022-08-14T10:32:21;101867.02;;;16.00;100.00
50065;BME280;35951;47.848;-122.338;2022-08-14T10:34:49;101866.58;;;15.97;100.00
50065;BME280;35951;47.848;-122.338;2022-08-14T10:37:18;101866.58;;;15.97;100.00
50065;BME280;35951;47.848;-122.338;2022-08-14T10:39:58;101865.25;;;15.96;100.00
50065;BME280;35951;47.848;-122.338;2022-08-14T10:42:37;101867.37;;;15.91;100.00
50065;BME280;35951;47.848;-122.338;2022-08-14T10:45:20;101869.58;;;15.90;100.00
50065;BME280;35951;47.848;-122.338;2022-08-14T10:47:58;101869.09;;;15.88;100.00
50065;BME280;35951;47.848;-122.338;2022-08-14T10:50:40;101867.34;;;15.85;100.00
50065;BME280;35951;47.848;-122.338;2022-08-14T10:53:02;101869.08;;;15.83;100.00
50065;BME280;35951;47.848;-122.338;2022-08-14T10:55:35;101865.55;;;15.80;100.00
50065;BME280;35951;47.848;-122.338;2022-08-14T10:58:07;101866.83;;;15.77;100.00
50065;BME280;35951;47.848;-122.338;2022-08-14T11:00:40;101865.07;;;15.74;100.00
50065;BME280;35951;47.848;-122.338;2022-08-14T11:03:10;101865.02;;;15.72;100.00
50065;BME280;35951;47.848;-122.338;2022-08-14T11:05:42;101867.18;;;15.71;100.00
50065;BME280;35951;47.848;-122.338;2022-08-14T11:08:12;101866.31;;;15.71;100.00
50065;BME280;35951;47.848;-122.338;2022-08-14T11:10:53;101868.50;;;15.70;100.00
50065;BME280;35951;47.848;-122.338;2022-08-14T11:13:27;101875.03;;;15.68;100.00
50065;BME280;35951;47.848;-122.338;2022-08-14T11:15:57;101877.61;;;15.65;100.00
50065;BME280;35951;47.848;-122.338;2022-08-14T11:18:29;101873.23;;;15.63;100.00
50065;BME280;35951;47.848;-122.338;2022-08-14T11:20:59;101874.53;;;15.61;100.00
50065;BME280;35951;47.848;-122.338;2022-08-14T11:23:32;101867.96;;;15.60;100.00
50065;BME280;35951;47.848;-122.338;2022-08-14T11:26:01;101872.73;;;15.59;100.00
50065;BME280;35951;47.848;-122.338;2022-08-14T11:28:33;101867.94;;;15.58;100.00
50065;BME280;35951;47.848;-122.338;2022-08-14T11:31:04;101875.78;;;15.57;100.00
50065;BME280;35951;47.848;-122.338;2022-08-14T11:33:34;101872.72;;;15.57;100.00
50065;BME280;35951;47.848;-122.338;2022-08-14T11:36:05;101876.65;;;15.57;100.00
50065;BME280;35951;47.848;-122.338;2022-08-14T11:38:37;101872.72;;;15.57;100.00
50065;BME280;35951;47.848;-122.338;2022-08-14T11:41:06;101874.48;;;15.58;100.00
50065;BME280;35951;47.848;-122.338;2022-08-14T11:43:39;101881.48;;;15.61;100.00
50065;BME280;35951;47.848;-122.338;2022-08-14T11:46:09;101880.20;;;15.62;100.00
50065;BME280;35951;47.848;-122.338;2022-08-14T11:48:50;101875.41;;;15.63;100.00
50065;BME280;35951;47.848;-122.338;2022-08-14T11:51:21;101876.28;;;15.64;100.00
50065;BME280;35951;47.848;-122.338;2022-08-14T11:54:04;101883.70;;;15.64;100.00
50065;BME280;35951;47.848;-122.338;2022-08-14T11:56:35;101883.26;;;15.62;100.00
50065;BME280;35951;47.848;-122.338;2022-08-14T11:59:06;101891.58;;;15.63;100.00
50065;BME280;35951;47.848;-122.338;2022-08-14T12:01:37;101889.78;;;15.60;100.00
50065;BME280;35951;47.848;-122.338;2022-08-14T12:04:15;101886.73;;;15.59;100.00
50065;BME280;35951;47.848;-122.338;2022-08-14T12:06:49;101889.36;;;15.59;100.00
50065;BME280;35951;47.848;-122.338;2022-08-14T12:09:33;101890.67;;;15.62;100.00
50065;BME280;35951;47.848;-122.338;2022-08-14T12:12:13;101894.63;;;15.64;100.00
50065;BME280;35951;47.848;-122.338;2022-08-14T12:14:57;101896.41;;;15.66;100.00
50065;BME280;35951;47.848;-122.338;2022-08-14T12:17:30;101894.66;;;15.67;100.00
50065;BME280;35951;47.848;-122.338;2022-08-14T12:20:00;101896.40;;;15.68;100.00
50065;BME280;35951;47.848;-122.338;2022-08-14T12:22:38;101899.04;;;15.69;100.00
50065;BME280;35951;47.848;-122.338;2022-08-14T12:25:13;101897.73;;;15.69;100.00
50065;BME280;35951;47.848;-122.338;2022-08-14T12:27:48;101898.17;;;15.69;100.00
50065;BME280;35951;47.848;-122.338;2022-08-14T12:30:30;101897.30;;;15.68;100.00
50065;BME280;35951;47.848;-122.338;2022-08-14T12:33:00;101895.10;;;15.66;100.00
50065;BME280;35951;47.848;-122.338;2022-08-14T12:35:40;101893.80;;;15.66;100.00
50065;BME280;35951;47.848;-122.338;2022-08-14T12:38:10;101890.27;;;15.66;100.00
50065;BME280;35951;47.848;-122.338;2022-08-14T12:40:49;101892.88;;;15.64;100.00
50065;BME280;35951;47.848;-122.338;2022-08-14T12:43:19;101891.58;;;15.66;100.00